Time;durP1;ratioP1;P1;durP2;ratioP2;P2;SDS_P1;SDS_P2;PMS_P1;PMS_P2;Temp;Humidity;BMP_temperature;BMP_pressure;BME280_temperature;BME280_humidity;BME280_pressure;Samples;Min_cycle;Max_cycle;Signal;HPM_P1;HPM_P2
2023/08/31 00:00:26;;;;;;;6.93;4.85;;;;;;;;;;5011022;28;20243;-68
2023/08/31 00:02:54;;;;;;;9.88;8.07;;;;;;;;;;5002857;28;20597;-66
2023/08/31 00:05:22;;;;;;;8.93;5.05;;;;;;;;;;5014918;28;21109;-67
2023/08/31 00:07:48;;;;;;;3.85;3.33;;;;;;;;;;5022712;28;20204;-68
2023/08/31 00:10:17;;;;;;;4.57;2.80;;;;;;;;;;5024165;28;20672;-68
2023/08/31 00:12:43;;;;;;;3.88;3.42;;;;;;;;;;5020069;28;20208;-68
2023/08/31 00:15:10;;;;;;;5.15;3.13;;;;;;;;;;5023647;28;20742;-68
2023/08/31 00:17:37;;;;;;;4.80;3.33;;;;;;;;;;5022377;28;20214;-67
2023/08/31 00:20:07;;;;;;;7.53;5.88;;;;;;;;;;5023366;28;20208;-68
2023/08/31 00:22:34;;;;;;;4.65;4.20;;;;;;;;;;5022299;28;20219;-68
2023/08/31 00:25:00;;;;;;;3.83;3.53;;;;;;;;;;5022749;28;20304;-68
2023/08/31 00:27:29;;;;;;;4.22;3.33;;;;;;;;;;5022613;28;20203;-67
2023/08/31 00:29:57;;;;;;;3.67;3.38;;;;;;;;;;5022697;28;20204;-68
2023/08/31 00:32:24;;;;;;;4.78;3.10;;;;;;;;;;5021572;28;20983;-68
2023/08/31 00:34:50;;;;;;;5.95;3.40;;;;;;;;;;5018623;28;21339;-67
2023/08/31 00:37:21;;;;;;;6.60;3.13;;;;;;;;;;5016434;28;20211;-67
2023/08/31 00:39:51;;;;;;;4.55;2.72;;;;;;;;;;5001993;28;20489;-68
2023/08/31 00:42:18;;;;;;;4.32;3.10;;;;;;;;;;4983464;28;20204;-68
2023/08/31 00:44:46;;;;;;;3.40;2.60;;;;;;;;;;4993374;28;20594;-68
2023/08/31 00:47:13;;;;;;;3.45;3.15;;;;;;;;;;4983454;28;20271;-68
2023/08/31 00:49:40;;;;;;;6.95;3.10;;;;;;;;;;4982275;28;20331;-67
2023/08/31 00:52:07;;;;;;;3.72;2.70;;;;;;;;;;4993775;28;20736;-69
2023/08/31 00:54:35;;;;;;;9.80;7.75;;;;;;;;;;5010575;28;20666;-68
2023/08/31 00:57:02;;;;;;;4.57;3.60;;;;;;;;;;4992957;28;20724;-66
2023/08/31 00:59:30;;;;;;;5.82;4.47;;;;;;;;;;5011226;28;20214;-68
2023/08/31 01:02:03;;;;;;;4.05;3.15;;;;;;;;;;4997570;28;20208;-69
2023/08/31 01:04:33;;;;;;;3.13;2.53;;;;;;;;;;4977767;28;20208;-67
2023/08/31 01:07:02;;;;;;;4.53;2.50;;;;;;;;;;5019158;28;20318;-66
2023/08/31 01:09:34;;;;;;;5.15;2.97;;;;;;;;;;5006671;28;20218;-68
2023/08/31 01:12:04;;;;;;;8.55;7.70;;;;;;;;;;5021511;28;20261;-67
2023/08/31 01:14:34;;;;;;;9.52;6.85;;;;;;;;;;5022259;28;20254;-68
2023/08/31 01:17:01;;;;;;;4.97;4.07;;;;;;;;;;5020604;28;20574;-67
2023/08/31 01:19:35;;;;;;;7.50;5.10;;;;;;;;;;5023013;28;20239;-68
2023/08/31 01:22:06;;;;;;;6.18;3.47;;;;;;;;;;5022716;28;20236;-67
2023/08/31 01:24:34;;;;;;;4.72;3.72;;;;;;;;;;5022555;28;20265;-67
2023/08/31 01:27:00;;;;;;;3.78;3.03;;;;;;;;;;5022731;28;20231;-67
2023/08/31 01:29:27;;;;;;;3.88;2.80;;;;;;;;;;5022287;28;20199;-67
2023/08/31 01:31:53;;;;;;;3.42;3.08;;;;;;;;;;5022018;28;20309;-66
2023/08/31 01:34:20;;;;;;;5.05;3.53;;;;;;;;;;5021733;28;20204;-67
2023/08/31 01:36:48;;;;;;;3.38;2.90;;;;;;;;;;5021702;28;20623;-68
2023/08/31 01:39:16;;;;;;;6.50;4.95;;;;;;;;;;5022173;28;20210;-68
2023/08/31 01:41:45;;;;;;;3.92;2.53;;;;;;;;;;5022140;28;20836;-67
2023/08/31 01:44:14;;;;;;;3.83;3.05;;;;;;;;;;5019448;28;20204;-65
2023/08/31 01:46:41;;;;;;;4.53;3.05;;;;;;;;;;5021877;28;20227;-67
2023/08/31 01:49:08;;;;;;;3.63;3.13;;;;;;;;;;5021470;28;20215;-66
2023/08/31 01:51:34;;;;;;;3.63;3.25;;;;;;;;;;5021890;28;20235;-65
2023/08/31 01:54:02;;;;;;;4.75;3.35;;;;;;;;;;5020915;28;20215;-67
2023/08/31 01:56:28;;;;;;;4.28;2.70;;;;;;;;;;5021984;28;20204;-66
2023/08/31 01:58:56;;;;;;;3.80;2.85;;;;;;;;;;5021009;28;20235;-66
2023/08/31 02:01:23;;;;;;;5.10;2.63;;;;;;;;;;5021356;28;20299;-67
2023/08/31 02:03:49;;;;;;;4.05;2.70;;;;;;;;;;5023209;28;20262;-68
2023/08/31 02:06:16;;;;;;;3.47;2.75;;;;;;;;;;5024700;28;20595;-67
2023/08/31 02:08:44;;;;;;;8.43;2.70;;;;;;;;;;5025424;28;20207;-67
2023/08/31 02:11:10;;;;;;;6.53;3.50;;;;;;;;;;5025733;28;20301;-66
2023/08/31 02:13:37;;;;;;;4.93;2.95;;;;;;;;;;5024794;28;20669;-68
2023/08/31 02:16:04;;;;;;;5.25;3.00;;;;;;;;;;5026024;28;20269;-66
2023/08/31 02:18:31;;;;;;;2.67;2.47;;;;;;;;;;5024886;28;20289;-66
2023/08/31 02:20:57;;;;;;;3.63;2.63;;;;;;;;;;5025855;28;20207;-67
2023/08/31 02:23:24;;;;;;;4.55;2.55;;;;;;;;;;5024929;28;20294;-66
2023/08/31 02:25:50;;;;;;;3.05;2.60;;;;;;;;;;5026017;28;20259;-67
2023/08/31 02:28:17;;;;;;;5.50;2.53;;;;;;;;;;5024767;28;20294;-67
2023/08/31 02:30:44;;;;;;;7.18;5.47;;;;;;;;;;5025254;28;20245;-66
2023/08/31 02:33:12;;;;;;;7.18;5.45;;;;;;;;;;5021694;28;20311;-68
2023/08/31 02:35:39;;;;;;;14.90;9.23;;;;;;;;;;5023846;28;20830;-68
2023/08/31 02:38:05;;;;;;;5.70;4.40;;;;;;;;;;5022144;28;20580;-66
2023/08/31 02:40:32;;;;;;;5.35;3.83;;;;;;;;;;5024103;28;20955;-67
2023/08/31 02:42:58;;;;;;;5.60;3.45;;;;;;;;;;5023422;28;20238;-66
2023/08/31 02:45:25;;;;;;;8.15;3.47;;;;;;;;;;5020679;28;20253;-67
2023/08/31 02:47:51;;;;;;;10.27;4.25;;;;;;;;;;5023603;28;20239;-67
2023/08/31 02:50:19;;;;;;;3.67;2.88;;;;;;;;;;5024209;28;20211;-67
2023/08/31 02:52:45;;;;;;;3.67;3.15;;;;;;;;;;5025717;28;20393;-67
2023/08/31 02:55:12;;;;;;;6.82;6.00;;;;;;;;;;5025025;28;20661;-67
2023/08/31 02:57:38;;;;;;;5.95;4.60;;;;;;;;;;5023858;28;20215;-66
2023/08/31 03:00:10;;;;;;;5.50;3.65;;;;;;;;;;5024536;28;20296;-67
2023/08/31 03:02:36;;;;;;;3.78;3.40;;;;;;;;;;5022583;28;20218;-68
2023/08/31 03:05:03;;;;;;;8.80;5.22;;;;;;;;;;5025422;28;20626;-68
2023/08/31 03:07:31;;;;;;;4.13;3.42;;;;;;;;;;5025071;28;20216;-67
2023/08/31 03:09:57;;;;;;;9.23;4.47;;;;;;;;;;5026098;28;20301;-67
2023/08/31 03:12:23;;;;;;;3.83;3.40;;;;;;;;;;5025636;28;20759;-67
2023/08/31 03:14:50;;;;;;;6.13;3.22;;;;;;;;;;5024452;28;20613;-65
2023/08/31 03:17:16;;;;;;;3.88;2.20;;;;;;;;;;5026059;28;20285;-66
2023/08/31 03:19:43;;;;;;;7.63;2.90;;;;;;;;;;5025434;28;20254;-66
2023/08/31 03:22:09;;;;;;;3.58;2.47;;;;;;;;;;5024841;28;20674;-66
2023/08/31 03:24:37;;;;;;;4.47;3.10;;;;;;;;;;5026082;28;20199;-67
2023/08/31 03:27:04;;;;;;;6.05;3.95;;;;;;;;;;5022382;28;20247;-65
2023/08/31 03:29:31;;;;;;;7.63;4.35;;;;;;;;;;5025021;28;20675;-66
2023/08/31 03:31:58;;;;;;;3.70;2.83;;;;;;;;;;5024752;28;20204;-65
2023/08/31 03:34:24;;;;;;;3.13;2.70;;;;;;;;;;5024530;28;20208;-66
2023/08/31 03:36:51;;;;;;;3.55;3.08;;;;;;;;;;5023867;28;20677;-66
2023/08/31 03:39:17;;;;;;;4.00;3.03;;;;;;;;;;5025343;28;20288;-66
2023/08/31 03:41:45;;;;;;;6.55;2.95;;;;;;;;;;5023945;28;20797;-66
2023/08/31 03:44:12;;;;;;;3.92;3.10;;;;;;;;;;5025579;28;20261;-67
2023/08/31 03:46:38;;;;;;;3.83;3.10;;;;;;;;;;5024031;28;20665;-66
2023/08/31 03:49:05;;;;;;;3.20;2.80;;;;;;;;;;5020967;28;20208;-66
2023/08/31 03:51:31;;;;;;;21.75;15.00;;;;;;;;;;5025012;28;20289;-66
2023/08/31 03:53:58;;;;;;;5.43;4.95;;;;;;;;;;5024310;28;20227;-67
2023/08/31 03:56:24;;;;;;;24.92;15.35;;;;;;;;;;5024948;28;20261;-67
2023/08/31 03:58:52;;;;;;;12.50;8.20;;;;;;;;;;5025042;28;20480;-67
2023/08/31 04:01:18;;;;;;;9.48;3.50;;;;;;;;;;5023859;28;20273;-68
2023/08/31 04:03:45;;;;;;;8.88;3.30;;;;;;;;;;5024621;28;20269;-68
2023/08/31 04:06:11;;;;;;;6.80;3.75;;;;;;;;;;5023681;28;20324;-67
2023/08/31 04:08:38;;;;;;;4.15;3.05;;;;;;;;;;5023838;28;20297;-66
2023/08/31 04:11:04;;;;;;;4.22;2.83;;;;;;;;;;5022461;28;20207;-67
2023/08/31 04:13:31;;;;;;;4.38;3.28;;;;;;;;;;5023042;28;20203;-67
2023/08/31 04:15:58;;;;;;;3.92;2.95;;;;;;;;;;5023196;28;20235;-67
2023/08/31 04:18:25;;;;;;;4.85;3.20;;;;;;;;;;5024286;28;20234;-67
2023/08/31 04:20:52;;;;;;;3.60;2.90;;;;;;;;;;5025180;28;20231;-67
2023/08/31 04:23:19;;;;;;;6.05;3.60;;;;;;;;;;5024122;28;20624;-68
2023/08/31 04:25:47;;;;;;;11.32;4.60;;;;;;;;;;5023983;28;20301;-67
2023/08/31 04:28:13;;;;;;;8.15;4.18;;;;;;;;;;5023478;28;20246;-67
2023/08/31 04:30:40;;;;;;;31.95;21.55;;;;;;;;;;5022856;28;20200;-67
2023/08/31 04:33:08;;;;;;;10.68;5.40;;;;;;;;;;5021709;28;20208;-67
2023/08/31 04:35:35;;;;;;;7.65;5.05;;;;;;;;;;5023139;28;20228;-67
2023/08/31 04:38:01;;;;;;;8.48;6.70;;;;;;;;;;5022267;28;20227;-67
2023/08/31 04:40:28;;;;;;;13.43;9.60;;;;;;;;;;5023550;28;20212;-66
2023/08/31 04:42:54;;;;;;;11.13;9.10;;;;;;;;;;5023689;28;20305;-66
2023/08/31 04:45:21;;;;;;;11.98;8.43;;;;;;;;;;5023630;28;20207;-66
2023/08/31 04:47:49;;;;;;;8.80;7.88;;;;;;;;;;5023446;28;20266;-66
2023/08/31 04:50:17;;;;;;;7.95;6.85;;;;;;;;;;5023429;28;20705;-66
2023/08/31 04:52:43;;;;;;;10.88;7.10;;;;;;;;;;5023209;28;20227;-66
2023/08/31 04:55:12;;;;;;;9.40;8.43;;;;;;;;;;5024183;28;20314;-65
2023/08/31 04:57:39;;;;;;;13.05;7.55;;;;;;;;;;5023237;28;20295;-66
2023/08/31 05:00:07;;;;;;;8.95;7.07;;;;;;;;;;5023916;28;20741;-66
2023/08/31 05:02:33;;;;;;;10.77;7.07;;;;;;;;;;5023668;28;20209;-66
2023/08/31 05:05:00;;;;;;;9.45;8.57;;;;;;;;;;5023883;28;20812;-66
2023/08/31 05:07:27;;;;;;;11.55;8.75;;;;;;;;;;5023265;28;20773;-66
2023/08/31 05:09:54;;;;;;;14.70;8.52;;;;;;;;;;5023436;28;20307;-66
2023/08/31 05:12:20;;;;;;;11.82;8.30;;;;;;;;;;5022981;28;20203;-66
2023/08/31 05:14:47;;;;;;;13.50;7.43;;;;;;;;;;5023927;28;20281;-66
2023/08/31 05:17:13;;;;;;;9.02;6.43;;;;;;;;;;5023218;28;20223;-66
2023/08/31 05:19:40;;;;;;;8.07;6.72;;;;;;;;;;5023490;28;20649;-67
2023/08/31 05:22:06;;;;;;;8.18;5.88;;;;;;;;;;5023549;28;20615;-66
2023/08/31 05:24:34;;;;;;;6.45;5.45;;;;;;;;;;5022685;28;20231;-66
2023/08/31 05:27:00;;;;;;;7.25;4.43;;;;;;;;;;5023834;28;20677;-66
2023/08/31 05:29:27;;;;;;;14.98;5.60;;;;;;;;;;5023129;28;20314;-66
2023/08/31 05:31:53;;;;;;;7.93;5.25;;;;;;;;;;5023322;28;20724;-66
2023/08/31 05:34:21;;;;;;;13.32;5.07;;;;;;;;;;5023173;28;20208;-67
2023/08/31 05:36:48;;;;;;;6.20;4.75;;;;;;;;;;5022722;28;20293;-67
2023/08/31 05:39:16;;;;;;;11.30;3.97;;;;;;;;;;5022848;28;20207;-68
2023/08/31 05:41:44;;;;;;;6.18;4.10;;;;;;;;;;5023195;28;20203;-67
2023/08/31 05:44:11;;;;;;;6.97;4.22;;;;;;;;;;5023125;28;20204;-67
2023/08/31 05:46:38;;;;;;;8.25;4.60;;;;;;;;;;5023141;28;20300;-67
2023/08/31 05:49:04;;;;;;;4.00;3.38;;;;;;;;;;5023029;28;20685;-66
2023/08/31 05:51:31;;;;;;;5.85;4.13;;;;;;;;;;5022746;28;20230;-66
2023/08/31 05:53:58;;;;;;;7.28;4.55;;;;;;;;;;5022896;28;20298;-66
2023/08/31 05:56:24;;;;;;;5.70;3.50;;;;;;;;;;5023415;28;20208;-66
2023/08/31 05:58:54;;;;;;;4.78;4.00;;;;;;;;;;5022303;28;20298;-66
2023/08/31 06:01:21;;;;;;;6.97;4.60;;;;;;;;;;5022038;28;20242;-66
2023/08/31 06:03:48;;;;;;;8.63;4.75;;;;;;;;;;5022698;28;20303;-68
2023/08/31 06:06:15;;;;;;;11.15;3.92;;;;;;;;;;5023268;28;20199;-66
2023/08/31 06:08:42;;;;;;;7.25;4.70;;;;;;;;;;5022167;28;20231;-66
2023/08/31 06:11:09;;;;;;;8.15;4.38;;;;;;;;;;5023204;28;20299;-66
2023/08/31 06:13:35;;;;;;;8.30;5.47;;;;;;;;;;5023150;28;20211;-67
2023/08/31 06:16:03;;;;;;;5.50;4.63;;;;;;;;;;5023367;28;20207;-66
2023/08/31 06:18:30;;;;;;;11.07;4.60;;;;;;;;;;5022674;28;20685;-66
2023/08/31 06:20:56;;;;;;;17.73;5.00;;;;;;;;;;5022906;28;20262;-66
2023/08/31 06:23:22;;;;;;;12.05;4.85;;;;;;;;;;5022934;28;20273;-66
2023/08/31 06:25:49;;;;;;;8.88;5.13;;;;;;;;;;5023287;28;20744;-67
2023/08/31 06:28:16;;;;;;;10.65;5.20;;;;;;;;;;5022185;28;20232;-66
2023/08/31 06:30:46;;;;;;;13.88;5.68;;;;;;;;;;5021973;28;20319;-64
2023/08/31 06:33:14;;;;;;;8.98;4.68;;;;;;;;;;5020667;28;20743;-67
2023/08/31 06:35:40;;;;;;;6.72;5.32;;;;;;;;;;5019956;28;20208;-67
2023/08/31 06:38:07;;;;;;;6.75;5.32;;;;;;;;;;5020691;28;20274;-67
2023/08/31 06:40:34;;;;;;;8.27;4.40;;;;;;;;;;5021238;28;20273;-67
2023/08/31 06:43:00;;;;;;;5.65;3.85;;;;;;;;;;5020799;28;20330;-68
2023/08/31 06:45:27;;;;;;;10.05;4.50;;;;;;;;;;5021083;28;20219;-68
2023/08/31 06:47:53;;;;;;;9.00;4.00;;;;;;;;;;5021538;28;20332;-68
2023/08/31 06:50:21;;;;;;;6.00;4.15;;;;;;;;;;5025850;28;20690;-68
2023/08/31 06:52:47;;;;;;;8.80;3.95;;;;;;;;;;5025952;28;20806;-68
2023/08/31 06:55:14;;;;;;;5.93;3.95;;;;;;;;;;5026493;28;20613;-68
2023/08/31 06:57:41;;;;;;;8.27;4.32;;;;;;;;;;5024841;28;20676;-68
2023/08/31 07:00:09;;;;;;;6.22;3.65;;;;;;;;;;5025191;28;20212;-68
2023/08/31 07:02:38;;;;;;;10.32;3.97;;;;;;;;;;5024570;28;20266;-67
2023/08/31 07:05:05;;;;;;;4.03;3.55;;;;;;;;;;5025213;28;20664;-68
2023/08/31 07:07:32;;;;;;;11.02;3.28;;;;;;;;;;5025642;28;20318;-67
2023/08/31 07:09:59;;;;;;;6.90;3.38;;;;;;;;;;5025521;28;20207;-67
2023/08/31 07:12:26;;;;;;;8.93;3.47;;;;;;;;;;5025351;28;20204;-68
2023/08/31 07:14:52;;;;;;;3.70;3.08;;;;;;;;;;5025653;28;20745;-68
2023/08/31 07:17:19;;;;;;;8.75;2.85;;;;;;;;;;5025378;28;20627;-68
2023/08/31 07:19:45;;;;;;;4.78;2.80;;;;;;;;;;5025770;28;20207;-67
2023/08/31 07:22:12;;;;;;;3.55;2.83;;;;;;;;;;5025328;28;20307;-68
2023/08/31 07:24:39;;;;;;;5.95;3.50;;;;;;;;;;5026072;28;20207;-68
2023/08/31 07:27:06;;;;;;;7.10;3.20;;;;;;;;;;5024547;28;20219;-67
2023/08/31 07:29:33;;;;;;;5.60;4.22;;;;;;;;;;5025646;28;20717;-68
2023/08/31 07:31:59;;;;;;;4.50;4.07;;;;;;;;;;5025262;28;20210;-68
2023/08/31 07:34:26;;;;;;;5.03;4.13;;;;;;;;;;5024974;28;20286;-67
2023/08/31 07:36:53;;;;;;;4.93;3.97;;;;;;;;;;5025111;28;20206;-68
2023/08/31 07:39:19;;;;;;;8.77;5.43;;;;;;;;;;5024440;28;20211;-67
2023/08/31 07:41:47;;;;;;;7.53;5.30;;;;;;;;;;5024762;28;20293;-67
2023/08/31 07:44:13;;;;;;;7.57;5.47;;;;;;;;;;5024941;28;20199;-68
2023/08/31 07:46:40;;;;;;;7.47;4.18;;;;;;;;;;5025260;28;20293;-67
2023/08/31 07:49:06;;;;;;;4.00;3.08;;;;;;;;;;5024037;28;20329;-67
2023/08/31 07:51:33;;;;;;;5.82;2.70;;;;;;;;;;5024877;28;20268;-67
2023/08/31 07:54:00;;;;;;;4.53;2.25;;;;;;;;;;5024108;28;20223;-67
2023/08/31 07:56:27;;;;;;;4.88;3.20;;;;;;;;;;5025240;28;20207;-67
2023/08/31 07:58:54;;;;;;;3.30;2.55;;;;;;;;;;5023645;28;20214;-66
2023/08/31 08:01:21;;;;;;;3.75;2.80;;;;;;;;;;5023456;28;20325;-67
2023/08/31 08:03:47;;;;;;;3.88;2.28;;;;;;;;;;5024095;28;20681;-68
2023/08/31 08:06:14;;;;;;;2.95;2.40;;;;;;;;;;5024867;28;20234;-67
2023/08/31 08:08:41;;;;;;;4.25;2.53;;;;;;;;;;5023993;28;20322;-66
2023/08/31 08:11:07;;;;;;;3.35;2.50;;;;;;;;;;5025652;28;20203;-68
2023/08/31 08:13:34;;;;;;;2.78;2.55;;;;;;;;;;5023998;28;20273;-67
2023/08/31 08:16:02;;;;;;;9.27;2.80;;;;;;;;;;5025003;28;20277;-68
2023/08/31 08:18:28;;;;;;;3.33;2.92;;;;;;;;;;5024744;28;20363;-69
2023/08/31 08:20:55;;;;;;;4.32;2.55;;;;;;;49.48;nan;94807.41;5024740;28;20207;-66
2023/08/31 08:23:23;;;;;;;4.68;2.78;;;;;;;49.27;nan;94810.50;5023355;28;20207;-67
2023/08/31 08:25:49;;;;;;;2.80;2.47;;;;;;;;;;5024868;28;20209;-66
2023/08/31 08:28:16;;;;;;;3.92;3.30;;;;;;;;;;5023789;28;20227;-66
2023/08/31 08:30:42;;;;;;;4.10;3.80;;;;;;;;;;5024132;28;20290;-67
2023/08/31 08:33:10;;;;;;;3.97;3.67;;;;;;;;;;5021970;28;20219;-67
2023/08/31 08:35:38;;;;;;;4.03;3.67;;;;;;;;;;5021927;28;20231;-68
2023/08/31 08:38:04;;;;;;;4.15;3.85;;;;;;;;;;5022592;28;20258;-67
2023/08/31 08:40:31;;;;;;;4.22;3.92;;;;;;;;;;5023306;28;20257;-67
2023/08/31 08:43:00;;;;;;;4.80;4.50;;;;;;;;;;5022064;28;20540;-67
2023/08/31 08:45:28;;;;;;;4.20;3.90;;;;;;;;;;5021830;28;20318;-67
2023/08/31 08:47:55;;;;;;;5.05;4.60;;;;;;;;;;5021642;28;20324;-67
2023/08/31 08:50:23;;;;;;;4.57;4.18;;;;;;;;;;5023021;28;20286;-67
2023/08/31 08:52:50;;;;;;;4.88;4.57;;;;;;;;;;5022981;28;20689;-67
2023/08/31 08:55:16;;;;;;;4.53;4.15;;;;;;;;;;5023280;28;20703;-68
2023/08/31 08:57:42;;;;;;;4.82;4.43;;;;;;;;;;5022867;28;20210;-66
2023/08/31 09:00:10;;;;;;;4.70;4.28;;;;;;;;;;5023685;28;20297;-67
2023/08/31 09:02:37;;;;;;;4.85;4.55;;;;;;;;;;5023634;28;20258;-67
2023/08/31 09:05:03;;;;;;;6.50;4.53;;;;;;;;;;5023436;28;20755;-67
2023/08/31 09:07:35;;;;;;;5.18;4.53;;;;;;;;;;5023668;28;20207;-66
2023/08/31 09:10:02;;;;;;;5.57;3.90;;;;;;;;;;5023218;28;20219;-67
2023/08/31 09:12:30;;;;;;;4.60;4.30;;;;;;;;;;5023156;28;20254;-67
2023/08/31 09:15:00;;;;;;;3.67;3.45;;;;;;;;;;5022948;28;20747;-67
2023/08/31 09:17:26;;;;;;;4.40;4.00;;;;;;;;;;5023044;28;20269;-66
2023/08/31 09:20:00;;;;;;;4.38;3.95;;;;;;;;;;5023428;28;20235;-67
2023/08/31 09:22:27;;;;;;;4.10;3.85;;;;;;;;;;5022934;28;20210;-66
2023/08/31 09:24:54;;;;;;;4.57;4.18;;;;;;;;;;5023120;28;20199;-67
2023/08/31 09:27:22;;;;;;;4.05;3.65;;;;;;;;;;5023465;28;20620;-67
2023/08/31 09:29:48;;;;;;;6.55;4.35;;;;;;;;;;5022371;28;20257;-67
2023/08/31 09:32:17;;;;;;;4.88;4.47;;;;;;;;;;5023347;28;20203;-67
2023/08/31 09:34:43;;;;;;;4.25;3.85;;;;;;;;;;5022526;28;20246;-67
2023/08/31 09:37:10;;;;;;;4.32;4.03;;;;;;;;;;5022391;28;20261;-67
2023/08/31 09:39:36;;;;;;;5.30;4.80;;;;;;;;;;5022714;28;20285;-67
2023/08/31 09:42:04;;;;;;;4.65;4.35;;;;;;;;;;5022686;28;20682;-67
2023/08/31 09:44:31;;;;;;;4.53;4.22;;;;;;;;;;5020751;28;20237;-68
2023/08/31 09:46:58;;;;;;;6.32;4.88;;;;;;;;;;5021055;28;20207;-67
2023/08/31 09:49:25;;;;;;;5.00;4.60;;;;;;;;;;5022106;28;20246;-67
2023/08/31 09:51:52;;;;;;;6.55;4.90;;;;;;;;;;5022037;28;20207;-68
2023/08/31 09:54:19;;;;;;;6.60;4.20;;;;;;;;;;5022333;28;20212;-67
2023/08/31 09:56:46;;;;;;;5.57;4.85;;;;;;;;;;5022624;28;20212;-66
2023/08/31 09:59:15;;;;;;;5.15;4.75;;;;;;;;;;5022636;28;20204;-66
2023/08/31 10:01:42;;;;;;;33.75;27.55;;;;;;;;;;5020316;28;20761;-66
2023/08/31 10:04:09;;;;;;;5.18;4.80;;;;;;;;;;5022741;28;20289;-66
2023/08/31 10:06:36;;;;;;;7.90;7.25;;;;;;;;;;5021693;28;20258;-67
2023/08/31 10:09:04;;;;;;;8.80;7.97;;;;;;;;;;5022280;28;20223;-67
2023/08/31 10:11:31;;;;;;;6.53;6.03;;;;;;;;;;5019701;28;20614;-67
2023/08/31 10:13:58;;;;;;;5.75;5.25;;;;;;;;;;5021587;28;20243;-64
2023/08/31 10:16:27;;;;;;;5.10;4.70;;;;;;;;;;5021494;28;20324;-67
2023/08/31 10:18:53;;;;;;;4.95;4.55;;;;;;;;;;5022095;28;20211;-64
2023/08/31 10:21:20;;;;;;;5.50;4.95;;;;;;;;;;5022570;28;20227;-66
2023/08/31 10:23:47;;;;;;;6.60;5.22;;;;;;;;;;5022640;28;20686;-73
2023/08/31 10:26:23;;;;;;;4.80;4.38;;;;;;;;;;5026132;28;20838;-65
2023/08/31 10:28:50;;;;;;;4.45;4.05;;;;;;;;;;5026064;28;20668;-67
2023/08/31 10:31:17;;;;;;;7.68;6.40;;;;;;;;;;5025092;28;20262;-70
2023/08/31 10:33:45;;;;;;;9.57;8.68;;;;;;;;;;5023692;28;20210;-70
2023/08/31 10:36:13;;;;;;;10.48;8.30;;;;;;;;;;5024489;28;20207;-71
2023/08/31 10:38:39;;;;;;;6.55;5.95;;;;;;;;;;5024353;28;20203;-71
2023/08/31 10:41:21;;;;;;;5.88;5.38;;;;;;;;;;5024215;28;20670;-71
2023/08/31 10:43:50;;;;;;;5.25;4.78;;;;;;;;;;5024157;28;20638;-70
2023/08/31 10:46:17;;;;;;;4.30;4.00;;;;;;;;;;5024507;28;20211;-71
2023/08/31 10:48:54;;;;;;;4.50;4.20;;;;;;;;;;5023686;28;20267;-71
2023/08/31 10:51:25;;;;;;;4.32;3.92;;;;;;;;;;5026373;28;20637;-71
2023/08/31 10:53:51;;;;;;;5.07;4.43;;;;;;;;;;5024907;28;20251;-69
2023/08/31 10:56:18;;;;;;;4.63;4.32;;;;;;;;;;5025234;28;20266;-72
2023/08/31 10:58:45;;;;;;;4.95;4.45;;;;;;;;;;5025293;28;20362;-69
2023/08/31 11:01:11;;;;;;;5.03;4.40;;;;;;;;;;5025187;28;21101;-69
2023/08/31 11:04:01;;;;;;;4.53;4.22;;;;;;;;;;5024370;28;20203;-69
2023/08/31 11:06:29;;;;;;;12.43;11.15;;;;;;;;;;5026267;28;20254;-69
2023/08/31 11:08:56;;;;;;;5.63;5.05;;;;;;;;;;5027661;28;20219;-69
2023/08/31 11:11:24;;;;;;;7.55;5.63;;;;;;;;;;5022828;28;20200;-70
2023/08/31 11:13:50;;;;;;;4.60;4.20;;;;;;;;;;5031728;28;20204;-69
2023/08/31 11:16:17;;;;;;;4.80;4.40;;;;;;;;;;5032775;28;20269;-69
2023/08/31 11:18:43;;;;;;;4.07;3.78;;;;;;;;;;5032174;28;20224;-69
2023/08/31 11:21:11;;;;;;;7.03;4.35;;;;;;;;;;5032736;28;20199;-69
2023/08/31 11:23:37;;;;;;;3.90;3.50;;;;;;;;;;5031978;28;20207;-69
2023/08/31 11:26:04;;;;;;;4.05;3.75;;;;;;;;;;5032522;28;20242;-69
2023/08/31 11:28:34;;;;;;;4.65;4.28;;;;;;;;;;5031371;28;20255;-68
2023/08/31 11:31:00;;;;;;;4.28;3.97;;;;;;;;;;5032484;28;20254;-68
2023/08/31 11:33:32;;;;;;;4.55;4.15;;;;;;;;;;5031545;28;20204;-68
2023/08/31 11:35:59;;;;;;;5.05;3.90;;;;;;;;;;5032140;28;20235;-68
2023/08/31 11:38:27;;;;;;;4.63;3.65;;;;;;;;;;5031590;28;20206;-68
2023/08/31 11:40:57;;;;;;;4.00;3.60;;;;;;;;;;5031738;28;20212;-68
2023/08/31 11:43:23;;;;;;;4.13;3.03;;;;;;;;;;5019874;28;20634;-68
2023/08/31 11:45:50;;;;;;;4.75;3.40;;;;;;;;;;5031408;28;20208;-69
2023/08/31 11:48:17;;;;;;;3.55;3.30;;;;;;;;;;5031242;28;20304;-69
2023/08/31 11:50:44;;;;;;;5.65;3.53;;;;;;;;;;5031508;28;20342;-69
2023/08/31 11:53:10;;;;;;;3.83;3.53;;;;;;;;;;5031288;28;20806;-68
2023/08/31 11:55:50;;;;;;;3.45;2.80;;;;;;;;;;5031639;28;20265;-68
2023/08/31 11:58:16;;;;;;;3.80;3.22;;;;;;;;;;5031333;28;20286;-68
2023/08/31 12:00:43;;;;;;;3.60;3.30;;;;;;;;;;5031037;28;20755;-69
2023/08/31 12:03:10;;;;;;;3.80;2.90;;;;;;;;;;5031720;28;20215;-69
2023/08/31 12:05:45;;;;;;;4.10;3.80;;;;;;;;;;5031404;28;20204;-69
2023/08/31 12:08:12;;;;;;;4.30;3.55;;;;;;;;;;5031725;28;20203;-69
2023/08/31 12:10:42;;;;;;;4.38;3.88;;;;;;;;;;5031427;28;20345;-69
2023/08/31 12:13:09;;;;;;;5.72;3.53;;;;;;;;;;5031520;28;20204;-68
2023/08/31 12:15:35;;;;;;;3.90;3.55;;;;;;;;;;5030808;28;20200;-69
2023/08/31 12:18:07;;;;;;;3.13;2.90;;;;;;;;;;5031495;28;20304;-69
2023/08/31 12:20:40;;;;;;;3.80;3.50;;;;;;;;;;5031249;28;20210;-70
2023/08/31 12:23:07;;;;;;;5.30;3.47;;;;;;;;;;5031240;28;20302;-70
2023/08/31 12:25:33;;;;;;;5.00;2.95;;;;;;;;;;5030662;28;20203;-70
2023/08/31 12:28:01;;;;;;;4.00;3.08;;;;;;;;;;5031170;28;20207;-70
2023/08/31 12:30:28;;;;;;;3.90;3.05;;;;;;;;;;5030649;28;20223;-69
2023/08/31 12:32:54;;;;;;;5.68;3.20;;;;;;;;;;5041543;28;20262;-70
2023/08/31 12:35:21;;;;;;;3.35;3.05;;;;;;;;;;5029002;28;20227;-70
2023/08/31 12:37:47;;;;;;;4.05;2.78;;;;;;;;;;5029030;28;20291;-70
2023/08/31 12:40:15;;;;;;;5.97;3.28;;;;;;;;;;5029232;28;20311;-69
2023/08/31 12:42:41;;;;;;;3.70;3.38;;;;;;;;;;5028592;28;20661;-69
2023/08/31 12:45:10;;;;;;;3.35;3.05;;;;;;;;;;5029049;28;20234;-69
2023/08/31 12:47:36;;;;;;;7.32;3.10;;;;;;;;;;5027589;28;20751;-70
2023/08/31 12:50:03;;;;;;;3.45;3.15;;;;;;;;;;5028872;28;20223;-69
2023/08/31 12:52:30;;;;;;;2.90;2.70;;;;;;;;;;5027618;28;20227;-68
2023/08/31 12:54:56;;;;;;;3.22;2.97;;;;;;;;;;5017511;28;20236;-71
2023/08/31 12:57:22;;;;;;;8.02;2.85;;;;;;;;;;5029975;28;20235;-70
2023/08/31 12:59:49;;;;;;;4.63;3.53;;;;;;;;;;5030589;28;20203;-68
2023/08/31 13:02:19;;;;;;;9.60;2.97;;;;;;;;;;5030289;28;20277;-69
2023/08/31 13:04:46;;;;;;;3.22;2.97;;;;;;;;;;5030512;28;20313;-68
2023/08/31 13:07:12;;;;;;;3.10;2.90;;;;;;;;;;5030024;28;20716;-68
2023/08/31 13:09:39;;;;;;;4.18;2.95;;;;;;;;;;5030402;28;20219;-68
2023/08/31 13:12:06;;;;;;;4.93;3.45;;;;;;;;;;5030107;28;20212;-68
2023/08/31 13:14:32;;;;;;;3.53;3.20;;;;;;;;;;5030431;28;20589;-68
2023/08/31 13:16:59;;;;;;;3.70;2.72;;;;;;;;;;5029786;28;20693;-68
2023/08/31 13:19:26;;;;;;;5.22;3.28;;;;;;;;;;5029945;28;20670;-69
2023/08/31 13:21:53;;;;;;;3.05;2.75;;;;;;;;;;5030191;28;20261;-69
2023/08/31 13:24:21;;;;;;;3.88;2.72;;;;;;;;;;5029996;28;20650;-68
2023/08/31 13:26:48;;;;;;;3.97;3.05;;;;;;;;;;5030790;28;20206;-68
2023/08/31 13:29:15;;;;;;;4.78;3.25;;;;;;;;;;5030325;28;20226;-68
2023/08/31 13:31:42;;;;;;;3.35;3.03;;;;;;;;;;5030022;28;20204;-67
2023/08/31 13:34:08;;;;;;;3.10;2.80;;;;;;;;;;5030526;28;20210;-67
2023/08/31 13:36:36;;;;;;;9.18;3.42;;;;;;;;;;5030086;28;20632;-67
2023/08/31 13:39:04;;;;;;;3.17;2.92;;;;;;;;;;5030036;28;20629;-67
2023/08/31 13:41:31;;;;;;;4.15;2.60;;;;;;;;;;5029669;28;20283;-67
2023/08/31 13:43:57;;;;;;;3.95;3.10;;;;;;;;;;5030041;28;20632;-67
2023/08/31 13:46:24;;;;;;;4.88;2.95;;;;;;;;;;5030017;28;20199;-68
2023/08/31 13:48:50;;;;;;;3.53;2.75;;;;;;;;;;5029262;28;20235;-68
2023/08/31 13:51:16;;;;;;;3.85;3.20;;;;;;;;;;5030034;28;20227;-68
2023/08/31 13:53:44;;;;;;;3.47;3.17;;;;;;;;;;5029901;28;20219;-68
2023/08/31 13:56:11;;;;;;;3.58;3.13;;;;;;;;;;5029512;28;20218;-67
2023/08/31 13:58:37;;;;;;;4.25;2.85;;;;;;;;;;5030314;28;20257;-68
2023/08/31 14:01:04;;;;;;;4.18;3.15;;;;;;;;;;5033472;28;20233;-67
2023/08/31 14:03:31;;;;;;;4.93;2.70;;;;;;;;;;5033878;28;20226;-67
2023/08/31 14:05:57;;;;;;;3.75;3.42;;;;;;;;;;5033679;28;20230;-67
2023/08/31 14:08:24;;;;;;;9.63;3.70;;;;;;;;;;5033796;28;20199;-67
2023/08/31 14:10:53;;;;;;;4.03;3.30;;;;;;;;;;5033314;28;20289;-67
2023/08/31 14:13:20;;;;;;;5.10;3.40;;;;;;;;;;5033681;28;20269;-67
2023/08/31 14:15:47;;;;;;;9.55;3.47;;;;;;;;;;5033480;28;20215;-67
2023/08/31 14:18:13;;;;;;;3.38;3.08;;;;;;;;;;5033045;28;20589;-67
2023/08/31 14:20:40;;;;;;;3.58;3.20;;;;;;;;;;5033344;28;20611;-67
2023/08/31 14:23:06;;;;;;;3.42;3.13;;;;;;;;;;5033360;28;20685;-67
2023/08/31 14:25:34;;;;;;;7.78;2.75;;;;;;;;;;5033349;28;20239;-65
2023/08/31 14:28:02;;;;;;;4.28;3.13;;;;;;;;;;5033155;28;20752;-67
2023/08/31 14:30:29;;;;;;;5.50;3.08;;;;;;;;;;5033716;28;20223;-66
2023/08/31 14:32:55;;;;;;;3.78;2.90;;;;;;;;;;5039052;28;20199;-66
2023/08/31 14:35:22;;;;;;;6.72;3.08;;;;;;;;;;5031656;28;20257;-67
2023/08/31 14:37:48;;;;;;;6.05;3.03;;;;;;;;;;5031258;28;20210;-67
2023/08/31 14:40:15;;;;;;;3.08;2.88;;;;;;;;;;5031923;28;20254;-67